• Join FlightAware (Why Join?)
  • Login
  • US Flag 
10:54AM EST


 

Airport Tracker/Info


-or-


 

Live Flight TrackerFlight Track Log ✈ AAL969 ✈ 21-Jul-2013 ✈ KDFW - KMIA

Flight Track Log - Related Links

Times and Time Zones

All times are in EDT time to prevent confusion due to time zone crossing. See the AAL969 flight status page for this flight to view local times or setup timezone preferences in your user account.

Time Position Orientation Groundspeed Altitude Reporting Facility
EDT Latitude Longitude Course Direction KTS MPH feet Rate Location/Type
07:05AM 32.8390 -97.0300 103° East 191 220 2,700  Level FlightAware
07:06AM 32.6874 -96.9536 103° East  Level FlightAware Approximate
07:06AM 32.7990 -97.0300 180° South 233 268 3,500  Level FlightAware
07:06AM 32.7840 -97.0300 180° South 244 281 4,100 2,820 Climbing FlightAware
07:06AM 32.7480 -97.0210 168° South 253 291 5,700 2,580 Climbing FlightAware
07:07AM 32.7380 -97.0080 132° Southeast 273 314 6,000 1,740 Climbing FlightAware
07:07AM 32.7320 -96.9910 113° Southeast 285 328 6,400 2,160 Climbing FlightAware
07:07AM 32.7320 -96.9800 90° East 289 333 6,700 3,660 Climbing FlightAware
07:07AM 32.7350 -96.9250 86° East 277 319 9,100 2,880 Climbing FlightAware
07:08AM 32.7380 -96.8600 87° East 309 356 10,400 1,800 Climbing FlightAware
07:09AM 32.7420 -96.7790 87° East 352 405 11,700 1,920 Climbing FlightAware
07:10AM 32.7460 -96.6990 87° East 374 430 13,100 2,340 Climbing FlightAware
07:10AM 32.7500 -96.6070 87° East 386 444 15,000 2,220 Climbing FlightAware
07:12AM 32.7570 -96.4250 87° East 402 463 18,300 2,220 Climbing FlightAware
07:13AM 32.7561 -96.3016 90° East 415 478 20,200 2,280 Climbing FlightAware ADS-B
07:13AM 32.7456 -96.2335 100° East 422 486 21,200 1,860 Climbing FlightAware ADS-B
07:14AM 32.7346 -96.1625 100° East 429 494 22,100 1,680 Climbing FlightAware ADS-B
07:14AM 32.7172 -96.0526 101° East 439 505 23,400 1,560 Climbing FlightAware ADS-B
07:15AM 32.7057 -95.9799 101° East 445 512 24,200 1,560 Climbing FlightAware ADS-B
07:15AM 32.6925 -95.8967 101° East 453 521 25,100 1,500 Climbing FlightAware ADS-B
07:16AM 32.6807 -95.8229 101° East 460 529 25,800 1,320 Climbing FlightAware ADS-B
07:17AM 32.6630 -95.7130 101° East 467 537 26,800 1,260 Climbing FlightAware
07:17AM 32.6602 -95.6841 97° East 468 539 27,000 1,560 Climbing FlightAware ADS-B
07:17AM 32.6587 -95.6361 92° East 466 536 27,600 1,620 Climbing FlightAware ADS-B
07:18AM 32.6636 -95.5539 86° East 465 535 28,400 1,380 Climbing FlightAware ADS-B
07:18AM 32.6704 -95.4547 85° East 466 536 29,300 1,260 Climbing FlightAware ADS-B
07:19AM 32.6696 -95.3999 91° East 470 541 29,700 1,200 Climbing FlightAware ADS-B
07:19AM 32.6652 -95.3778 103° East 472 543 29,900 1,080 Climbing FlightAware ADS-B
07:19AM 32.6599 -95.3599 109° East 475 547 30,000 1,200 Climbing FlightAware ADS-B
07:19AM 32.6522 -95.3407 115° Southeast 478 550 30,200 1,380 Climbing FlightAware ADS-B
07:19AM 32.6474 -95.3307 120° Southeast 479 551 30,300 1,200 Climbing FlightAware ADS-B
07:20AM 32.6138 -95.2621 120° Southeast 480 552 30,900 1,080 Climbing FlightAware ADS-B
07:20AM 32.5800 -95.1923 120° Southeast 485 558 31,400 1,080 Climbing FlightAware ADS-B
07:21AM 32.5463 -95.1224 120° Southeast 485 558 32,000 1,320 Climbing FlightAware ADS-B
07:21AM 32.5049 -95.0367 120° Southeast 481 554 32,900 1,380 Climbing FlightAware ADS-B
07:22AM 32.4706 -94.9659 120° Southeast 480 552 33,600 1,200 Climbing FlightAware ADS-B
07:22AM 32.4365 -94.8972 120° Southeast 477 549 34,200 1,200 Climbing FlightAware ADS-B
07:23AM 32.4009 -94.8259 121° Southeast 473 544 34,900 1,200 Climbing FlightAware ADS-B
07:23AM 32.3675 -94.7588 120° Southeast 473 544 35,500 1,140 Climbing FlightAware ADS-B
07:24AM 32.3320 -94.6874 120° Southeast 470 541 36,100 1,140 Climbing FlightAware ADS-B
07:24AM 32.2987 -94.6210 121° Southeast 468 539 36,700 840 Climbing FlightAware ADS-B
07:25AM 32.2648 -94.5539 121° Southeast 467 537 37,000 240 Climbing FlightAware ADS-B
07:26AM 32.2318 -94.4873 120° Southeast 469 540 37,000  Level FlightAware ADS-B
07:26AM 32.1986 -94.4195 120° Southeast 470 541 37,000  Level FlightAware ADS-B
07:27AM 32.1649 -94.3519 120° Southeast 471 542 37,000  Level FlightAware ADS-B
07:28AM 32.0971 -94.2176 121° Southeast 473 544 37,000  Level FlightAware ADS-B
07:29AM 32.0295 -94.0844 121° Southeast 473 544 37,000  Level FlightAware ADS-B
07:29AM 31.9960 -94.0184 121° Southeast 471 542 37,000  Level FlightAware ADS-B
07:30AM 31.9623 -93.9520 121° Southeast 470 541 37,000  Level FlightAware ADS-B
07:30AM 31.9229 -93.8748 121° Southeast 470 541 37,000  Level FlightAware ADS-B
07:31AM 31.8844 -93.7995 121° Southeast 469 540 37,000  Level FlightAware ADS-B
07:31AM 31.8508 -93.7336 121° Southeast 467 537 37,000  Level FlightAware ADS-B
07:32AM 31.8172 -93.6678 121° Southeast 467 537 37,000  Level FlightAware ADS-B
07:32AM 31.7826 -93.6006 121° Southeast 466 536 37,000  Level FlightAware ADS-B
07:33AM 31.7462 -93.5296 121° Southeast 466 536 37,000  Level FlightAware ADS-B
07:33AM 31.7129 -93.4646 121° Southeast 466 536 37,000  Level FlightAware ADS-B
07:34AM 31.6792 -93.3992 121° Southeast 466 536 37,000  Level FlightAware ADS-B
07:34AM 31.6430 -93.3289 121° Southeast 466 536 37,000  Level FlightAware ADS-B
07:35AM 31.6095 -93.2640 121° Southeast 466 536 37,000  Level FlightAware ADS-B
07:36AM 31.5457 -93.1404 121° Southeast 464 534 37,000  Level FlightAware ADS-B
07:36AM 31.5101 -93.0719 121° Southeast 464 534 37,000  Level FlightAware ADS-B
07:37AM 31.4666 -92.9883 121° Southeast 466 536 37,000  Level FlightAware ADS-B
07:38AM 31.4298 -92.9178 121° Southeast 469 540 37,000  Level FlightAware ADS-B
07:38AM 31.3960 -92.8529 121° Southeast 470 541 37,000  Level FlightAware ADS-B
07:39AM 31.3605 -92.7855 122° Southeast 470 541 37,000  Level FlightAware ADS-B
07:39AM 31.3252 -92.7186 122° Southeast 469 540 37,000  Level FlightAware ADS-B
07:40AM 31.2903 -92.6521 122° Southeast 469 540 37,000  Level FlightAware ADS-B
07:40AM 31.2554 -92.5859 122° Southeast 469 540 37,000  Level FlightAware ADS-B
07:41AM 31.2177 -92.5144 122° Southeast 470 541 37,000  Level FlightAware ADS-B
07:42AM 31.1322 -92.3523 122° Southeast 470 541 37,000  Level FlightAware ADS-B
07:42AM 31.0958 -92.2836 122° Southeast 470 541 37,000  Level FlightAware ADS-B
07:43AM 31.0611 -92.2184 122° Southeast 471 542 37,000  Level FlightAware ADS-B
07:48AM 30.7414 -91.6209 122° Southeast 472 543 37,000  Level FlightAware ADS-B
07:48AM 30.6915 -91.5285 122° Southeast 473 544 37,000  Level FlightAware ADS-B
07:49AM 30.6231 -91.4023 122° Southeast 474 545 37,000  Level FlightAware ADS-B
07:50AM 30.5873 -91.3366 122° Southeast 473 544 37,000  Level FlightAware ADS-B
07:50AM 30.5421 -91.2541 122° Southeast 473 544 37,000  Level FlightAware ADS-B
07:51AM 30.5063 -91.1885 122° Southeast 470 541 37,000  Level FlightAware ADS-B
07:51AM 30.4690 -91.1203 122° Southeast 468 539 37,000  Level FlightAware ADS-B
07:52AM 30.4339 -91.0559 122° Southeast 466 536 37,000  Level FlightAware ADS-B
07:52AM 30.3984 -90.9909 122° Southeast 465 535 37,000  Level FlightAware ADS-B
07:54AM 30.2710 -90.7590 122° Southeast 460 529 37,000  Level FlightAware
07:55AM 30.2240 -90.6720 122° Southeast 460 529 37,000  Level FlightAware
07:56AM 30.1900 -90.6080 122° Southeast 460 529 37,000  Level FlightAware
07:57AM 30.1060 -90.4610 123° Southeast 458 527 37,000  Level FlightAware
07:57AM 30.0610 -90.3800 123° Southeast 456 525 37,000  Level FlightAware
07:58AM 30.0160 -90.2990 123° Southeast 456 525 37,000  Level FlightAware
07:59AM 29.9700 -90.2170 123° Southeast 458 527 37,000  Level FlightAware
07:59AM 29.9290 -90.1430 123° Southeast 460 529 37,000  Level FlightAware
08:00AM 29.8920 -90.0780 123° Southeast 461 531 37,000  Level FlightAware
08:01AM 29.8300 -89.9760 125° Southeast 457 526 37,000  Level FlightAware
08:01AM 29.7770 -89.9030 130° Southeast 459 528 37,000  Level FlightAware
08:02AM 29.7160 -89.8200 130° Southeast 461 531 37,000  Level FlightAware
08:03AM 29.6620 -89.7470 130° Southeast 461 531 37,000  Level FlightAware
08:03AM 29.6110 -89.6770 130° Southeast 461 531 37,000  Level FlightAware
08:04AM 29.5480 -89.5920 130° Southeast 462 532 37,000  Level FlightAware
08:05AM 29.4930 -89.5170 130° Southeast 461 531 37,000  Level FlightAware
08:06AM 29.4290 -89.4310 130° Southeast 462 532 37,000  Level FlightAware
08:06AM 29.3730 -89.3550 130° Southeast 461 531 37,000  Level FlightAware
08:07AM 29.3090 -89.2710 131° Southeast 459 528 37,000  Level FlightAware
08:08AM 29.2530 -89.1850 127° Southeast 462 532 37,000  Level FlightAware
08:08AM 29.2210 -89.0950 112° Southeast 467 537 37,000  Level FlightAware
08:09AM 29.1940 -89.0050 109° East 467 537 37,000  Level FlightAware
08:10AM 29.1660 -88.9140 109° East 467 537 37,000  Level FlightAware
08:10AM 29.1370 -88.8180 109° East 467 537 37,000  Level FlightAware
08:13AM 29.0430 -88.5170 110° East 468 539 37,000  Level FlightAware
08:13AM 29.0160 -88.4290 109° East 468 539 37,000  Level FlightAware
08:14AM 28.9770 -88.3030 109° East 467 537 37,000  Level FlightAware
08:15AM 28.9440 -88.1990 110° East 466 536 37,000  Level FlightAware
08:16AM 28.9130 -88.0980 109° East 467 537 37,000  Level FlightAware
08:16AM 28.8780 -87.9880 110° East 467 537 37,000  Level FlightAware
08:17AM 28.8520 -87.9050 110° East 464 534 37,000  Level FlightAware
08:18AM 28.8230 -87.8120 110° East 462 532 37,000  Level FlightAware
08:18AM 28.7870 -87.6990 110° East 459 528 37,000  Level FlightAware
08:19AM 28.7620 -87.6200 110° East 456 525 37,000  Level FlightAware
08:19AM 28.7430 -87.5620 110° East 454 522 37,000  Level FlightAware
08:20AM 28.7010 -87.4300 110° East 452 520 37,000  Level FlightAware
08:21AM 28.6650 -87.3390 114° Southeast 453 521 37,000  Level FlightAware
08:22AM 28.6340 -87.2660 116° Southeast 454 522 37,000  Level FlightAware
08:22AM 28.5940 -87.1720 116° Southeast 453 521 37,000  Level FlightAware
08:23AM 28.5600 -87.0900 115° Southeast 452 520 37,000  Level FlightAware
08:24AM 28.5240 -87.0080 117° Southeast 450 518 37,000  Level FlightAware
08:24AM 28.4820 -86.9090 116° Southeast 450 518 37,000  Level FlightAware
08:25AM 28.4400 -86.8090 116° Southeast 451 519 37,000  Level FlightAware
08:26AM 28.4090 -86.7360 116° Southeast 451 519 37,000  Level FlightAware
08:27AM 28.3690 -86.6440 116° Southeast 451 519 37,000  Level FlightAware
08:27AM 28.3160 -86.5210 116° Southeast 450 518 37,000  Level FlightAware
08:28AM 28.2840 -86.4470 116° Southeast 451 519 37,000  Level FlightAware
08:29AM 28.2520 -86.3690 115° Southeast 451 519 37,000  Level FlightAware
08:30AM 28.2010 -86.2490 116° Southeast 451 519 37,000  Level FlightAware
08:30AM 28.1840 -86.2090 116° Southeast 451 519 37,000  Level FlightAware
08:31AM 28.1470 -86.1200 115° Southeast 451 519 37,000  Level FlightAware
08:32AM 28.1200 -86.0530 115° Southeast 451 519 37,000  Level FlightAware
08:32AM 28.0920 -85.9850 115° Southeast 451 519 37,000  Level FlightAware
08:33AM 28.0650 -85.9200 115° Southeast 451 519 37,000  Level FlightAware
08:34AM 28.0290 -85.8320 115° Southeast 451 519 37,000  Level FlightAware
08:34AM 28.0030 -85.7700 115° Southeast 451 519 37,000  Level FlightAware
08:35AM 27.9150 -85.5980 120° Southeast 445 512 37,000  Level FlightAware
08:36AM 27.8730 -85.5040 117° Southeast 443 510 37,000  Level FlightAware
08:36AM 27.8400 -85.4270 116° Southeast 445 512 37,000  Level FlightAware
08:37AM 27.8070 -85.3470 115° Southeast 442 509 37,000  Level FlightAware
08:38AM 27.7690 -85.2540 115° Southeast 441 507 37,000  Level FlightAware
08:38AM 27.7340 -85.1690 115° Southeast 441 507 37,000  Level FlightAware
08:39AM 27.6980 -85.0840 116° Southeast 443 510 37,000  Level FlightAware
08:40AM 27.6640 -85.0020 115° Southeast 444 511 37,000  Level FlightAware
08:42AM 27.5590 -84.7530 115° Southeast 451 519 37,000  Level FlightAware
08:42AM 27.5210 -84.6620 115° Southeast 451 519 37,000  Level FlightAware
08:43AM 27.4710 -84.5450 116° Southeast 449 517 37,000  Level FlightAware
08:44AM 27.4360 -84.4610 115° Southeast 449 517 37,000  Level FlightAware
08:45AM 27.3960 -84.3670 116° Southeast 450 518 37,000  Level FlightAware
08:45AM 27.3610 -84.2850 116° Southeast 451 519 37,000  Level FlightAware
08:46AM 27.3240 -84.1990 116° Southeast 451 519 37,000  Level FlightAware
08:47AM 27.2740 -84.0810 115° Southeast 453 521 37,000  Level FlightAware
08:48AM 27.2060 -83.9210 116° Southeast 453 521 37,000  Level FlightAware
08:50AM 27.1180 -83.7170 116° Southeast 454 522 37,000  Level FlightAware
08:51AM 27.0730 -83.6130 116° Southeast 454 522 37,000  Level FlightAware
08:51AM 27.0550 -83.5700 115° Southeast 454 522 37,000  Level FlightAware
08:52AM 27.0110 -83.4700 116° Southeast 453 521 37,000  Level FlightAware
08:52AM 26.9710 -83.3790 116° Southeast 453 521 37,000  Level FlightAware
08:53AM 26.9400 -83.3030 115° Southeast 453 521 37,000  Level FlightAware
08:54AM 26.9050 -83.2150 114° Southeast 453 521 37,000 -360 Level FlightAware
08:54AM 26.8570 -83.1170 119° Southeast 36,700 -540 Descending FlightAware
08:55AM 26.8150 -83.0190 116° Southeast 456 525 36,300 -300 Descending FlightAware
08:56AM 26.7870 -82.9530 115° Southeast 456 525 36,300 -1,380 Level FlightAware
08:56AM 26.7520 -82.8410 109° East 460 529 34,600 -1,740 Descending FlightAware
08:57AM 26.7180 -82.7300 109° East 459 528 33,800 -960 Descending FlightAware
08:58AM 26.6940 -82.6540 109° East 461 531 33,300 -660 Descending FlightAware
08:59AM 26.6650 -82.5600 109° East 461 531 33,000 -240 Descending FlightAware
08:59AM 26.6350 -82.4600 109° East 460 529 33,000  Level FlightAware
09:01AM 26.5760 -82.2580 108° East 461 531 33,000  Level FlightAware
09:01AM 26.5400 -82.1570 112° Southeast 464 534 33,000  Level FlightAware
09:02AM 26.5120 -82.0790 112° Southeast 465 535 33,000 -180 Level FlightAware
09:03AM 26.4740 -81.9800 113° Southeast 469 540 32,800  Descending FlightAware
09:04AM 26.4980 -82.0380 295° West 469 540 33,000 -1,080 Climbing FlightAware
09:04AM 26.4390 -81.9190 119° Southeast 474 545 31,200 -2,340 Descending FlightAware
09:05AM 26.3980 -81.8470 122° Southeast 466 536 29,700 -2,400 Descending FlightAware
09:06AM 26.3650 -81.7890 122° Southeast 464 534 28,300 -2,040 Descending FlightAware
09:06AM 26.3300 -81.7280 123° Southeast 459 528 27,000 -2,220 Descending FlightAware
09:07AM 26.2920 -81.6620 123° Southeast 454 522 25,400 -2,700 Descending FlightAware
09:08AM 26.2470 -81.5830 122° Southeast 453 521 23,400 -2,760 Descending FlightAware
09:09AM 26.1880 -81.4800 123° Southeast 443 510 20,900 -2,700 Descending FlightAware
09:09AM 26.1540 -81.4210 123° Southeast 442 509 19,400 -5,700 Descending FlightAware
09:10AM 25.9910 -81.1400 123° Southeast 403 464 12,300 -2,940 Descending FlightAware
09:12AM 25.9040 -80.9210 114° Southeast 293 337 9,800 -1,080 Descending FlightAware
09:13AM 25.8860 -80.8580 108° East 280 322 9,000 -1,320 Descending FlightAware
09:14AM 25.8710 -80.8040 107° East 276 318 8,200 -1,560 Descending FlightAware
09:14AM 25.8600 -80.7630 107° East 275 316 7,500 -1,380 Descending FlightAware
09:15AM 25.8510 -80.7310 107° East 272 313 7,000 -1,080 Descending FlightAware
09:15AM 25.8410 -80.6970 108° East 263 303 6,600 -1,200 Descending FlightAware
09:15AM 25.8300 -80.6580 107° East 252 290 5,900 -1,560 Descending FlightAware
09:16AM 25.8200 -80.6220 107° East 250 288 5,100 -1,680 Descending FlightAware
09:16AM 25.8130 -80.5970 107° East 249 287 4,500 -1,560 Descending FlightAware
09:17AM 25.8030 -80.5620 108° East 245 282 3,800 -1,260 Descending FlightAware
09:17AM 25.7950 -80.5310 106° East 242 278 3,400 -960 Descending FlightAware
09:18AM 25.7860 -80.5000 108° East 240 276 3,000 -1,020 Descending FlightAware
09:18AM 25.7790 -80.4650 103° East 245 282 2,500 -1,320 Descending FlightAware
09:19AM 25.7820 -80.4220 86° East 225 259 1,700 -1,320 Descending FlightAware
09:19AM 25.7830 -80.3970 87° East 206 237 1,300 -960 Descending FlightAware
09:19AM 25.7840 -80.3740 87° East 181 208 1,000 -900 Descending FlightAware
09:20AM 25.7850 -80.3380 88° East 153 176 300 -960 Descending FlightAware
09:21AM 25.7860 -80.3170 87° East 154 177 -660 Descending FlightAware
09:21AM 25.7860 -80.3000 90° East 154 177  Level FlightAware
09:21AM 25.7870 -80.2910 83° East 56 64  Level FlightAware
09:22AM 25.7880 -80.2870 74° East 22 25  Level FlightAware
09:22AM 25.7890 -80.2870 360° North 21 24  Level FlightAware
09:22AM 25.7900 -80.2870 360° North 2 2  Level FlightAware